TimeEDT,TemperatureF,Dew PointF,Humidity,Sea Level PressureIn,VisibilityMPH,Wind Direction,Wind SpeedMPH,Gust SpeedMPH,PrecipitationIn,Events,Conditions,WindDirDegrees,DateUTC
12:15 AM,68.0,60.8,78,29.98,10.0,South,4.6,-,N/A,,Clear,190,2013-04-11 04:15:00
12:35 AM,68.0,60.8,78,29.98,10.0,SSW,6.9,-,N/A,,Clear,200,2013-04-11 04:35:00
12:55 AM,68.0,59.0,73,29.98,10.0,SSW,5.8,-,N/A,,Clear,200,2013-04-11 04:55:00
1:15 AM,66.2,59.0,78,29.98,10.0,SSW,4.6,-,N/A,,Clear,200,2013-04-11 05:15:00
1:35 AM,66.2,59.0,78,29.97,10.0,SSW,6.9,-,N/A,,Clear,200,2013-04-11 05:35:00
1:55 AM,66.2,59.0,78,29.97,10.0,Calm,Calm,-,N/A,,Clear,0,2013-04-11 05:55:00
2:15 AM,64.4,57.2,77,29.97,10.0,SSW,6.9,-,N/A,,Clear,200,2013-04-11 06:15:00
2:35 AM,64.4,57.2,77,29.97,10.0,Calm,Calm,-,N/A,,Clear,0,2013-04-11 06:35:00
2:55 AM,64.4,57.2,77,29.97,10.0,SSW,5.8,-,N/A,,Clear,200,2013-04-11 06:55:00
3:15 AM,64.4,59.0,83,29.97,10.0,SSW,5.8,-,N/A,,Clear,200,2013-04-11 07:15:00
3:35 AM,62.6,59.0,88,29.96,10.0,SSW,5.8,-,N/A,,Clear,210,2013-04-11 07:35:00
3:55 AM,62.6,59.0,88,29.96,10.0,SSW,5.8,-,N/A,,Clear,200,2013-04-11 07:55:00
4:15 AM,62.6,59.0,88,29.96,10.0,SSW,4.6,-,N/A,,Clear,200,2013-04-11 08:15:00
4:35 AM,62.6,59.0,88,29.96,10.0,SSW,6.9,-,N/A,,Clear,200,2013-04-11 08:35:00
4:55 AM,62.6,60.8,94,29.96,10.0,SSW,4.6,-,N/A,,Clear,210,2013-04-11 08:55:00
5:15 AM,62.6,60.8,94,29.96,10.0,SSW,5.8,-,N/A,,Clear,210,2013-04-11 09:15:00
5:35 AM,60.8,60.8,100,29.96,10.0,SSW,4.6,-,N/A,,Clear,210,2013-04-11 09:35:00
5:55 AM,-9999,-9999,N/A,29.97,10.0,SSW,4.6,-,N/A,,Clear,200,2013-04-11 09:55:00
6:15 AM,-9999,-9999,N/A,29.96,10.0,SSW,5.8,-,N/A,,Clear,210,2013-04-11 10:15:00
6:35 AM,-9999,-9999,N/A,29.97,10.0,SW,3.5,-,N/A,,Clear,220,2013-04-11 10:35:00
6:55 AM,-9999,-9999,N/A,29.98,10.0,SSW,4.6,-,N/A,,Clear,210,2013-04-11 10:55:00
7:15 AM,-9999,-9999,N/A,29.98,10.0,SSW,5.8,-,N/A,,Clear,210,2013-04-11 11:15:00
7:35 AM,-9999,-9999,N/A,29.99,10.0,SSW,4.6,-,N/A,,Scattered Clouds,210,2013-04-11 11:35:00
7:55 AM,-9999,-9999,N/A,30.00,10.0,SSW,4.6,-,N/A,,Mostly Cloudy,210,2013-04-11 11:55:00
8:15 AM,-9999,-9999,N/A,30.00,10.0,SW,6.9,-,N/A,,Mostly Cloudy,220,2013-04-11 12:15:00
8:35 AM,-9999,-9999,N/A,30.00,10.0,SSW,5.8,-,N/A,,Scattered Clouds,210,2013-04-11 12:35:00
8:55 AM,68.0,68.0,100,30.01,10.0,SW,4.6,-,N/A,,Scattered Clouds,230,2013-04-11 12:55:00
9:15 AM,68.0,62.6,83,30.01,10.0,SW,4.6,19.6,N/A,,Scattered Clouds,230,2013-04-11 13:15:00
9:35 AM,68.0,62.6,83,30.01,10.0,SSW,8.1,-,N/A,,Scattered Clouds,200,2013-04-11 13:35:00
9:55 AM,69.8,62.6,78,30.00,10.0,Calm,Calm,-,N/A,,Scattered Clouds,0,2013-04-11 13:55:00
10:15 AM,71.6,62.6,73,30.00,10.0,SSW,9.2,16.1,N/A,,Scattered Clouds,210,2013-04-11 14:15:00
10:35 AM,71.6,62.6,73,29.99,10.0,SSW,6.9,-,N/A,,Scattered Clouds,210,2013-04-11 14:35:00
10:55 AM,73.4,62.6,69,29.99,10.0,SSW,6.9,-,N/A,,Scattered Clouds,210,2013-04-11 14:55:00
11:15 AM,73.4,60.8,65,29.99,10.0,SW,9.2,-,N/A,,Scattered Clouds,230,2013-04-11 15:15:00
11:35 AM,73.4,60.8,65,29.99,10.0,South,13.8,18.4,N/A,,Scattered Clouds,190,2013-04-11 15:35:00
11:55 AM,73.4,60.8,65,29.99,10.0,SSW,8.1,17.3,N/A,,Mostly Cloudy,210,2013-04-11 15:55:00
12:15 PM,73.4,60.8,65,29.98,10.0,SSW,5.8,-,N/A,,Overcast,210,2013-04-11 16:15:00
12:35 PM,75.2,60.8,61,29.97,10.0,SSW,11.5,17.3,N/A,,Mostly Cloudy,200,2013-04-11 16:35:00
1:15 PM,77.0,59.0,54,29.95,10.0,WSW,6.9,-,N/A,,Mostly Cloudy,240,2013-04-11 17:15:00
1:35 PM,78.8,57.2,47,29.95,10.0,SSW,8.1,-,N/A,,Scattered Clouds,200,2013-04-11 17:35:00
1:55 PM,78.8,57.2,47,29.93,10.0,WSW,4.6,-,N/A,,Mostly Cloudy,240,2013-04-11 17:55:00
2:15 PM,78.8,57.2,47,29.92,10.0,SSW,6.9,-,N/A,,Scattered Clouds,210,2013-04-11 18:15:00
2:35 PM,80.6,55.4,42,29.91,10.0,SSW,6.9,-,N/A,,Clear,200,2013-04-11 18:35:00
2:55 PM,78.8,55.4,44,29.91,10.0,SSW,5.8,16.1,N/A,,Scattered Clouds,210,2013-04-11 18:55:00
3:15 PM,80.6,55.4,42,29.89,10.0,South,13.8,18.4,N/A,,Scattered Clouds,180,2013-04-11 19:15:00
3:35 PM,78.8,55.4,44,29.88,10.0,South,6.9,-,N/A,,Mostly Cloudy,190,2013-04-11 19:35:00
3:55 PM,78.8,55.4,44,29.87,10.0,South,9.2,-,N/A,,Mostly Cloudy,190,2013-04-11 19:55:00
4:15 PM,78.8,55.4,44,29.86,10.0,SSW,8.1,-,N/A,,Scattered Clouds,200,2013-04-11 20:15:00
4:35 PM,80.6,55.4,42,29.86,10.0,South,9.2,16.1,N/A,,Scattered Clouds,190,2013-04-11 20:35:00
4:55 PM,80.6,53.6,39,29.86,10.0,SW,8.1,16.1,N/A,,Scattered Clouds,230,2013-04-11 20:55:00
5:15 PM,80.6,55.4,42,29.85,10.0,SSW,8.1,-,N/A,,Scattered Clouds,200,2013-04-11 21:15:00
5:35 PM,78.8,55.4,44,29.84,10.0,SSW,4.6,-,N/A,,Scattered Clouds,210,2013-04-11 21:35:00
5:55 PM,78.8,55.4,44,29.84,10.0,South,6.9,-,N/A,,Mostly Cloudy,190,2013-04-11 21:55:00
6:15 PM,78.8,55.4,44,29.84,10.0,South,6.9,-,N/A,,Overcast,170,2013-04-11 22:15:00
6:35 PM,77.0,55.4,47,29.83,10.0,South,6.9,-,N/A,,Mostly Cloudy,180,2013-04-11 22:35:00
6:55 PM,77.0,57.2,50,29.83,10.0,South,4.6,-,N/A,,Scattered Clouds,180,2013-04-11 22:55:00
7:15 PM,75.2,57.2,53,29.83,10.0,South,4.6,-,N/A,,Clear,170,2013-04-11 23:15:00
7:35 PM,73.4,57.2,57,29.83,10.0,South,4.6,-,N/A,,Clear,170,2013-04-11 23:35:00
7:55 PM,71.6,59.0,64,29.83,10.0,Calm,Calm,-,N/A,,Clear,0,2013-04-11 23:55:00
8:15 PM,69.8,59.0,68,29.83,10.0,Calm,Calm,-,N/A,,Clear,0,2013-04-12 00:15:00
8:35 PM,68.0,59.0,73,29.83,10.0,Calm,Calm,-,N/A,,Clear,0,2013-04-12 00:35:00
8:55 PM,69.8,59.0,68,29.82,10.0,SSE,3.5,-,N/A,,Clear,160,2013-04-12 00:55:00
9:15 PM,71.6,59.0,64,29.83,10.0,SSE,10.4,-,N/A,,Clear,160,2013-04-12 01:15:00
9:35 PM,71.6,62.6,73,29.84,10.0,South,9.2,-,N/A,,Clear,170,2013-04-12 01:35:00
9:55 PM,71.6,62.6,73,29.84,10.0,South,8.1,-,N/A,,Scattered Clouds,170,2013-04-12 01:55:00
10:15 PM,71.6,64.4,78,29.84,10.0,South,9.2,-,N/A,,Mostly Cloudy,170,2013-04-12 02:15:00
10:35 PM,71.6,64.4,78,29.84,10.0,South,6.9,-,N/A,,Overcast,180,2013-04-12 02:35:00
10:55 PM,71.6,66.2,83,29.84,10.0,South,15.0,19.6,N/A,,Overcast,170,2013-04-12 02:55:00
11:15 PM,71.6,68.0,88,29.83,10.0,South,11.5,16.1,N/A,,Mostly Cloudy,170,2013-04-12 03:15:00
11:35 PM,71.6,68.0,88,29.83,10.0,South,11.5,19.6,N/A,,Scattered Clouds,180,2013-04-12 03:35:00
11:55 PM,71.6,68.0,88,29.84,10.0,South,15.0,23.0,N/A,,Scattered Clouds,180,2013-04-12 03:55:00